sensor_id;sensor_type;location;lat;lon;timestamp;pressure;altitude;pressure_sealevel;temperature;humidity
78990;BME280;68390;52.130;21.218;2023-05-07T00:01:58;101172.06;;;5.29;84.16
78990;BME280;68390;52.130;21.218;2023-05-07T00:04:23;101168.81;;;5.24;84.50
78990;BME280;68390;52.130;21.218;2023-05-07T00:06:49;101170.56;;;5.25;84.22
78990;BME280;68390;52.130;21.218;2023-05-07T00:09:14;101178.72;;;5.25;84.00
78990;BME280;68390;52.130;21.218;2023-05-07T00:11:41;101175.88;;;5.26;84.51
78990;BME280;68390;52.130;21.218;2023-05-07T00:14:07;101180.47;;;5.26;84.99
78990;BME280;68390;52.130;21.218;2023-05-07T00:16:32;101188.63;;;5.26;84.65
78990;BME280;68390;52.130;21.218;2023-05-07T00:18:58;101186.91;;;5.25;84.78
78990;BME280;68390;52.130;21.218;2023-05-07T00:21:23;101189.41;;;5.28;84.94
78990;BME280;68390;52.130;21.218;2023-05-07T00:23:52;101191.34;;;5.26;84.85
78990;BME280;68390;52.130;21.218;2023-05-07T00:26:17;101186.91;;;5.25;84.57
78990;BME280;68390;52.130;21.218;2023-05-07T00:28:43;101180.69;;;5.23;84.81
78990;BME280;68390;52.130;21.218;2023-05-07T00:31:08;101197.91;;;5.23;84.83
78990;BME280;68390;52.130;21.218;2023-05-07T00:33:34;101183.63;;;5.20;84.85
78990;BME280;68390;52.130;21.218;2023-05-07T00:35:59;101181.94;;;5.19;84.53
78990;BME280;68390;52.130;21.218;2023-05-07T00:38:27;101186.13;;;5.23;85.54
78990;BME280;68390;52.130;21.218;2023-05-07T00:40:52;101182.03;;;5.17;84.73
78990;BME280;68390;52.130;21.218;2023-05-07T00:43:17;101181.06;;;5.18;85.17
78990;BME280;68390;52.130;21.218;2023-05-07T00:45:43;101195.78;;;5.15;84.89
78990;BME280;68390;52.130;21.218;2023-05-07T00:48:08;101187.50;;;5.17;85.44
78990;BME280;68390;52.130;21.218;2023-05-07T00:50:33;101198.50;;;5.15;85.34
78990;BME280;68390;52.130;21.218;2023-05-07T00:52:59;101189.44;;;5.15;84.97
78990;BME280;68390;52.130;21.218;2023-05-07T00:55:45;101197.63;;;5.15;86.17
78990;BME280;68390;52.130;21.218;2023-05-07T00:58:31;101196.75;;;5.14;85.27
78990;BME280;68390;52.130;21.218;2023-05-07T01:00:57;101192.28;;;5.13;86.23
78990;BME280;68390;52.130;21.218;2023-05-07T01:03:23;101192.50;;;5.10;85.40
78990;BME280;68390;52.130;21.218;2023-05-07T01:05:50;101192.28;;;5.13;86.51
78990;BME280;68390;52.130;21.218;2023-05-07T01:08:17;101194.25;;;5.11;85.73
78990;BME280;68390;52.130;21.218;2023-05-07T01:10:43;101194.50;;;5.08;85.60
78990;BME280;68390;52.130;21.218;2023-05-07T01:13:10;101195.22;;;5.10;86.21
78990;BME280;68390;52.130;21.218;2023-05-07T01:15:37;101191.78;;;5.08;85.88
78990;BME280;68390;52.130;21.218;2023-05-07T01:18:03;101201.66;;;5.09;85.29
78990;BME280;68390;52.130;21.218;2023-05-07T01:20:29;101194.72;;;5.05;86.37
78990;BME280;68390;52.130;21.218;2023-05-07T01:22:54;101197.56;;;5.04;85.97
78990;BME280;68390;52.130;21.218;2023-05-07T01:25:21;101193.22;;;5.01;86.31
78990;BME280;68390;52.130;21.218;2023-05-07T01:27:47;101192.13;;;5.04;85.71
78990;BME280;68390;52.130;21.218;2023-05-07T01:30:12;101194.72;;;5.05;86.34
78990;BME280;68390;52.130;21.218;2023-05-07T01:35:18;101206.06;;;4.99;85.79
78990;BME280;68390;52.130;21.218;2023-05-07T01:37:46;101211.38;;;5.01;86.07
78990;BME280;68390;52.130;21.218;2023-05-07T01:40:13;101206.19;;;4.98;85.93
78990;BME280;68390;52.130;21.218;2023-05-07T01:42:38;101196.03;;;5.00;86.38
78990;BME280;68390;52.130;21.218;2023-05-07T01:45:05;101205.31;;;4.97;85.92
78990;BME280;68390;52.130;21.218;2023-05-07T01:47:30;101209.13;;;4.95;85.77
78990;BME280;68390;52.130;21.218;2023-05-07T01:49:57;101209.34;;;4.92;86.16
78990;BME280;68390;52.130;21.218;2023-05-07T01:52:23;101204.03;;;4.90;86.40
78990;BME280;68390;52.130;21.218;2023-05-07T01:54:49;101212.19;;;4.90;86.44
78990;BME280;68390;52.130;21.218;2023-05-07T01:57:15;101207.88;;;4.88;86.74
78990;BME280;68390;52.130;21.218;2023-05-07T01:59:40;101207.22;;;4.84;86.24
78990;BME280;68390;52.130;21.218;2023-05-07T02:02:06;101206.25;;;4.85;86.41
78990;BME280;68390;52.130;21.218;2023-05-07T02:04:31;101203.72;;;4.82;86.69
78990;BME280;68390;52.130;21.218;2023-05-07T02:06:57;101201.78;;;4.84;87.02
78990;BME280;68390;52.130;21.218;2023-05-07T02:09:22;101206.34;;;4.84;86.82
78990;BME280;68390;52.130;21.218;2023-05-07T02:11:48;101209.94;;;4.84;86.88
78990;BME280;68390;52.130;21.218;2023-05-07T02:14:14;101209.94;;;4.84;87.31
78990;BME280;68390;52.130;21.218;2023-05-07T02:16:41;101197.19;;;4.85;86.49
78990;BME280;68390;52.130;21.218;2023-05-07T02:19:06;101212.66;;;4.84;86.25
78990;BME280;68390;52.130;21.218;2023-05-07T02:21:32;101207.00;;;4.87;86.72
78990;BME280;68390;52.130;21.218;2023-05-07T02:23:57;101217.75;;;4.89;86.81
78990;BME280;68390;52.130;21.218;2023-05-07T02:26:23;101215.88;;;4.89;87.03
78990;BME280;68390;52.130;21.218;2023-05-07T02:28:48;101222.09;;;4.91;86.95
78990;BME280;68390;52.130;21.218;2023-05-07T02:31:13;101213.16;;;4.89;87.22
78990;BME280;68390;52.130;21.218;2023-05-07T02:33:39;101216.53;;;4.93;87.25
78990;BME280;68390;52.130;21.218;2023-05-07T02:36:06;101213.94;;;4.91;87.43
78990;BME280;68390;52.130;21.218;2023-05-07T02:38:32;101213.16;;;4.89;86.91
78990;BME280;68390;52.130;21.218;2023-05-07T02:40:57;101214.16;;;4.88;87.01
78990;BME280;68390;52.130;21.218;2023-05-07T02:43:22;101212.19;;;4.90;87.33
78990;BME280;68390;52.130;21.218;2023-05-07T02:45:48;101210.22;;;4.92;87.11
78990;BME280;68390;52.130;21.218;2023-05-07T02:48:13;101218.50;;;4.91;86.36
78990;BME280;68390;52.130;21.218;2023-05-07T02:50:39;101215.88;;;4.89;86.76
78990;BME280;68390;52.130;21.218;2023-05-07T02:53:04;101216.75;;;4.90;87.21
78990;BME280;68390;52.130;21.218;2023-05-07T02:55:30;101226.78;;;4.89;86.93
78990;BME280;68390;52.130;21.218;2023-05-07T02:57:55;101222.09;;;4.91;87.46
78990;BME280;68390;52.130;21.218;2023-05-07T03:00:21;101221.13;;;4.92;87.11
78990;BME280;68390;52.130;21.218;2023-05-07T03:02:47;101224.94;;;4.90;87.21
78990;BME280;68390;52.130;21.218;2023-05-07T03:05:12;101227.91;;;4.87;86.66
78990;BME280;68390;52.130;21.218;2023-05-07T03:07:39;101223.31;;;4.87;86.82
78990;BME280;68390;52.130;21.218;2023-05-07T03:10:05;101228.88;;;4.86;87.69
78990;BME280;68390;52.130;21.218;2023-05-07T03:12:31;101225.03;;;4.88;87.18
78990;BME280;68390;52.130;21.218;2023-05-07T03:14:56;101224.94;;;4.90;87.33
78990;BME280;68390;52.130;21.218;2023-05-07T03:17:22;101226.16;;;4.86;86.11
78990;BME280;68390;52.130;21.218;2023-05-07T03:19:47;101228.78;;;4.87;87.13
78990;BME280;68390;52.130;21.218;2023-05-07T03:22:13;101236.69;;;4.90;87.13
78990;BME280;68390;52.130;21.218;2023-05-07T03:24:39;101234.84;;;4.91;86.97
78990;BME280;68390;52.130;21.218;2023-05-07T03:27:04;101248.22;;;4.94;87.31
78990;BME280;68390;52.130;21.218;2023-05-07T03:29:29;101252.91;;;4.92;86.92
78990;BME280;68390;52.130;21.218;2023-05-07T03:31:55;101251.91;;;4.93;87.21
78990;BME280;68390;52.130;21.218;2023-05-07T03:34:22;101250.94;;;4.94;87.34
78990;BME280;68390;52.130;21.218;2023-05-07T03:36:48;101256.38;;;4.94;86.91
78990;BME280;68390;52.130;21.218;2023-05-07T03:39:14;101250.06;;;4.93;86.51
78990;BME280;68390;52.130;21.218;2023-05-07T03:41:39;101261.72;;;4.95;87.00
78990;BME280;68390;52.130;21.218;2023-05-07T03:44:05;101255.50;;;4.93;86.54
78990;BME280;68390;52.130;21.218;2023-05-07T03:46:30;101268.16;;;4.94;86.38
78990;BME280;68390;52.130;21.218;2023-05-07T03:48:57;101259.97;;;4.94;86.50
78990;BME280;68390;52.130;21.218;2023-05-07T03:51:23;101259.00;;;4.95;86.28
78990;BME280;68390;52.130;21.218;2023-05-07T03:53:48;101261.72;;;4.95;86.41
78990;BME280;68390;52.130;21.218;2023-05-07T03:56:14;101267.94;;;4.97;86.54
78990;BME280;68390;52.130;21.218;2023-05-07T03:58:39;101271.38;;;4.99;86.74
78990;BME280;68390;52.130;21.218;2023-05-07T04:01:05;101278.81;;;4.97;86.90
78990;BME280;68390;52.130;21.218;2023-05-07T04:03:30;101276.97;;;4.98;85.10
78990;BME280;68390;52.130;21.218;2023-05-07T04:05:55;101275.13;;;4.98;86.50
78990;BME280;68390;52.130;21.218;2023-05-07T04:08:21;101286.72;;;5.00;86.28
78990;BME280;68390;52.130;21.218;2023-05-07T04:10:46;101282.25;;;4.99;85.69
78990;BME280;68390;52.130;21.218;2023-05-07T04:13:12;101281.28;;;5.00;86.44
78990;BME280;68390;52.130;21.218;2023-05-07T04:15:38;101284.66;;;5.04;86.67
78990;BME280;68390;52.130;21.218;2023-05-07T04:18:03;101284.78;;;5.02;85.71
78990;BME280;68390;52.130;21.218;2023-05-07T04:20:28;101284.78;;;5.02;86.98
78990;BME280;68390;52.130;21.218;2023-05-07T04:22:54;101300.13;;;5.03;86.18
78990;BME280;68390;52.130;21.218;2023-05-07T04:25:19;101296.63;;;5.01;85.83
78990;BME280;68390;52.130;21.218;2023-05-07T04:27:45;101291.97;;;5.03;86.18
78990;BME280;68390;52.130;21.218;2023-05-07T04:30:10;101294.69;;;5.03;85.86
78990;BME280;68390;52.130;21.218;2023-05-07T04:32:36;101294.91;;;5.00;86.02
78990;BME280;68390;52.130;21.218;2023-05-07T04:35:02;101303.72;;;5.04;86.59
78990;BME280;68390;52.130;21.218;2023-05-07T04:37:28;101302.94;;;5.02;86.07
78990;BME280;68390;52.130;21.218;2023-05-07T04:39:53;101308.94;;;5.07;86.15
78990;BME280;68390;52.130;21.218;2023-05-07T04:42:18;101309.69;;;5.09;86.13
78990;BME280;68390;52.130;21.218;2023-05-07T04:44:44;101318.59;;;5.11;86.15
78990;BME280;68390;52.130;21.218;2023-05-07T04:47:12;101320.56;;;5.09;85.77
78990;BME280;68390;52.130;21.218;2023-05-07T04:49:38;101329.16;;;5.15;86.12
78990;BME280;68390;52.130;21.218;2023-05-07T04:52:04;101318.38;;;5.14;85.58
78990;BME280;68390;52.130;21.218;2023-05-07T04:54:29;101321.13;;;5.14;85.79
78990;BME280;68390;52.130;21.218;2023-05-07T04:56:55;101325.47;;;5.16;86.65
78990;BME280;68390;52.130;21.218;2023-05-07T04:59:20;101325.97;;;5.22;85.42
78990;BME280;68390;52.130;21.218;2023-05-07T05:01:46;101321.19;;;5.25;85.97
78990;BME280;68390;52.130;21.218;2023-05-07T05:04:11;101337.16;;;5.30;86.37
78990;BME280;68390;52.130;21.218;2023-05-07T05:06:38;101339.06;;;5.29;85.42
78990;BME280;68390;52.130;21.218;2023-05-07T05:09:03;101338.91;;;5.31;85.01
78990;BME280;68390;52.130;21.218;2023-05-07T05:11:30;101347.75;;;5.34;86.21
78990;BME280;68390;52.130;21.218;2023-05-07T05:13:56;101352.09;;;5.37;86.03
78990;BME280;68390;52.130;21.218;2023-05-07T05:16:21;101356.56;;;5.38;84.84
78990;BME280;68390;52.130;21.218;2023-05-07T05:18:47;101364.72;;;5.38;85.40
78990;BME280;68390;52.130;21.218;2023-05-07T05:21:12;101371.91;;;5.39;85.36
78990;BME280;68390;52.130;21.218;2023-05-07T05:23:38;101372.78;;;5.39;84.94
78990;BME280;68390;52.130;21.218;2023-05-07T05:26:04;101372.91;;;5.38;84.44
78990;BME280;68390;52.130;21.218;2023-05-07T05:28:29;101363.75;;;5.39;84.24
78990;BME280;68390;52.130;21.218;2023-05-07T05:30:55;101368.94;;;5.42;84.92
78990;BME280;68390;52.130;21.218;2023-05-07T05:33:20;101365.78;;;5.48;85.27
78990;BME280;68390;52.130;21.218;2023-05-07T05:35:45;101370.97;;;5.51;85.00
78990;BME280;68390;52.130;21.218;2023-05-07T05:38:11;101368.16;;;5.52;84.31
78990;BME280;68390;52.130;21.218;2023-05-07T05:40:36;101374.03;;;5.59;85.70
78990;BME280;68390;52.130;21.218;2023-05-07T05:43:02;101367.34;;;5.63;84.29
78990;BME280;68390;52.130;21.218;2023-05-07T05:45:27;101371.38;;;5.70;85.82
78990;BME280;68390;52.130;21.218;2023-05-07T05:47:53;101369.69;;;5.80;85.71
78990;BME280;68390;52.130;21.218;2023-05-07T05:50:18;101372.63;;;5.90;85.71
78990;BME280;68390;52.130;21.218;2023-05-07T05:52:43;101381.06;;;5.98;85.05
78990;BME280;68390;52.130;21.218;2023-05-07T05:55:09;101388.66;;;6.06;84.60
78990;BME280;68390;52.130;21.218;2023-05-07T05:57:34;101379.16;;;6.11;84.53
78990;BME280;68390;52.130;21.218;2023-05-07T06:00:01;101379.44;;;6.19;84.49
78990;BME280;68390;52.130;21.218;2023-05-07T06:02:27;101384.28;;;6.27;84.04
78990;BME280;68390;52.130;21.218;2023-05-07T06:04:53;101383.81;;;6.33;83.88
78990;BME280;68390;52.130;21.218;2023-05-07T06:07:18;101387.56;;;6.43;84.30
78990;BME280;68390;52.130;21.218;2023-05-07T06:09:44;101387.94;;;6.50;82.27
78990;BME280;68390;52.130;21.218;2023-05-07T06:12:09;101388.09;;;6.59;82.79
78990;BME280;68390;52.130;21.218;2023-05-07T06:14:34;101389.88;;;6.72;81.52
78990;BME280;68390;52.130;21.218;2023-05-07T06:17:00;101400.81;;;6.83;82.64
78990;BME280;68390;52.130;21.218;2023-05-07T06:19:25;101391.34;;;6.87;79.82
78990;BME280;68390;52.130;21.218;2023-05-07T06:21:51;101399.31;;;7.01;81.75
78990;BME280;68390;52.130;21.218;2023-05-07T06:24:17;101404.66;;;7.03;79.22
78990;BME280;68390;52.130;21.218;2023-05-07T06:26:42;101400.31;;;7.11;81.34
78990;BME280;68390;52.130;21.218;2023-05-07T06:29:08;101402.53;;;7.17;79.62
78990;BME280;68390;52.130;21.218;2023-05-07T06:31:33;101414.72;;;7.24;79.52
78990;BME280;68390;52.130;21.218;2023-05-07T06:33:59;101404.03;;;7.32;78.58
78990;BME280;68390;52.130;21.218;2023-05-07T06:36:25;101397.31;;;7.48;79.30
78990;BME280;68390;52.130;21.218;2023-05-07T06:38:51;101397.78;;;7.64;80.48
78990;BME280;68390;52.130;21.218;2023-05-07T06:41:17;101401.72;;;7.82;79.58
78990;BME280;68390;52.130;21.218;2023-05-07T06:43:42;101391.75;;;7.92;78.78
78990;BME280;68390;52.130;21.218;2023-05-07T06:46:07;101401.31;;;7.98;78.42
78990;BME280;68390;52.130;21.218;2023-05-07T06:48:33;101396.44;;;8.01;75.44
78990;BME280;68390;52.130;21.218;2023-05-07T06:50:58;101403.66;;;8.02;73.64
78990;BME280;68390;52.130;21.218;2023-05-07T06:53:24;101396.31;;;8.03;73.84
78990;BME280;68390;52.130;21.218;2023-05-07T06:55:49;101414.22;;;8.07;73.77
78990;BME280;68390;52.130;21.218;2023-05-07T06:58:15;101405.38;;;8.03;74.28
78990;BME280;68390;52.130;21.218;2023-05-07T07:00:40;101404.28;;;8.06;75.41
78990;BME280;68390;52.130;21.218;2023-05-07T07:03:06;101409.50;;;8.09;73.43
78990;BME280;68390;52.130;21.218;2023-05-07T07:05:31;101412.81;;;8.13;75.65
78990;BME280;68390;52.130;21.218;2023-05-07T07:07:57;101417.81;;;8.07;73.89
78990;BME280;68390;52.130;21.218;2023-05-07T07:10:22;101424.78;;;8.00;73.16
78990;BME280;68390;52.130;21.218;2023-05-07T07:12:49;101426.53;;;8.01;74.59
78990;BME280;68390;52.130;21.218;2023-05-07T07:15:15;101431.97;;;8.13;76.23
78990;BME280;68390;52.130;21.218;2023-05-07T07:17:41;101427.78;;;8.08;72.82
78990;BME280;68390;52.130;21.218;2023-05-07T07:20:07;101435.47;;;8.03;71.33
78990;BME280;68390;52.130;21.218;2023-05-07T07:22:32;101437.09;;;8.06;75.18
78990;BME280;68390;52.130;21.218;2023-05-07T07:24:58;101436.47;;;8.02;73.49
78990;BME280;68390;52.130;21.218;2023-05-07T07:27:23;101445.69;;;8.01;72.16
78990;BME280;68390;52.130;21.218;2023-05-07T07:29:48;101448.78;;;8.08;71.61
78990;BME280;68390;52.130;21.218;2023-05-07T07:32:14;101442.03;;;8.12;73.72
78990;BME280;68390;52.130;21.218;2023-05-07T07:34:39;101435.94;;;8.20;72.16
78990;BME280;68390;52.130;21.218;2023-05-07T07:37:05;101444.53;;;8.15;69.29
78990;BME280;68390;52.130;21.218;2023-05-07T07:39:34;101457.34;;;8.15;72.64
78990;BME280;68390;52.130;21.218;2023-05-07T07:42:00;101462.56;;;8.18;71.83
78990;BME280;68390;52.130;21.218;2023-05-07T07:44:27;101457.94;;;8.18;71.00
78990;BME280;68390;52.130;21.218;2023-05-07T07:46:53;101460.09;;;8.03;71.20
78990;BME280;68390;52.130;21.218;2023-05-07T07:49:18;101459.09;;;8.04;69.96
78990;BME280;68390;52.130;21.218;2023-05-07T07:51:43;101457.13;;;8.06;70.00
78990;BME280;68390;52.130;21.218;2023-05-07T07:54:09;101457.84;;;8.08;72.31
78990;BME280;68390;52.130;21.218;2023-05-07T07:56:34;101470.03;;;8.16;72.76
78990;BME280;68390;52.130;21.218;2023-05-07T07:59:00;101458.53;;;8.22;70.26
78990;BME280;68390;52.130;21.218;2023-05-07T08:01:26;101462.28;;;8.21;70.00
78990;BME280;68390;52.130;21.218;2023-05-07T08:03:52;101459.28;;;8.24;68.62
78990;BME280;68390;52.130;21.218;2023-05-07T08:06:18;101460.28;;;8.23;70.08
78990;BME280;68390;52.130;21.218;2023-05-07T08:08:43;101456.31;;;8.27;70.31
78990;BME280;68390;52.130;21.218;2023-05-07T08:11:09;101459.16;;;8.25;69.62
78990;BME280;68390;52.130;21.218;2023-05-07T08:13:34;101455.31;;;8.28;69.87
78990;BME280;68390;52.130;21.218;2023-05-07T08:16:00;101470.22;;;8.35;68.78
78990;BME280;68390;52.130;21.218;2023-05-07T08:18:25;101470.44;;;8.43;71.19
78990;BME280;68390;52.130;21.218;2023-05-07T08:20:53;101477.53;;;8.45;69.43
78990;BME280;68390;52.130;21.218;2023-05-07T08:23:18;101475.91;;;8.43;71.08
78990;BME280;68390;52.130;21.218;2023-05-07T08:25:44;101475.31;;;8.39;70.13
78990;BME280;68390;52.130;21.218;2023-05-07T08:28:09;101477.31;;;8.26;68.10
78990;BME280;68390;52.130;21.218;2023-05-07T08:30:35;101481.81;;;8.27;69.39
78990;BME280;68390;52.130;21.218;2023-05-07T08:33:00;101476.69;;;8.23;70.23
78990;BME280;68390;52.130;21.218;2023-05-07T08:35:26;101485.91;;;8.22;68.46
78990;BME280;68390;52.130;21.218;2023-05-07T08:37:52;101483.69;;;8.16;67.51
78990;BME280;68390;52.130;21.218;2023-05-07T08:40:18;101487.56;;;8.13;70.03
78990;BME280;68390;52.130;21.218;2023-05-07T08:42:44;101496.16;;;8.08;70.24
78990;BME280;68390;52.130;21.218;2023-05-07T08:45:10;101495.44;;;7.95;67.72
78990;BME280;68390;52.130;21.218;2023-05-07T08:47:43;101502.66;;;7.96;69.65
78990;BME280;68390;52.130;21.218;2023-05-07T08:50:12;101499.69;;;7.88;67.15
78990;BME280;68390;52.130;21.218;2023-05-07T08:52:41;101503.13;;;7.90;70.47
78990;BME280;68390;52.130;21.218;2023-05-07T08:55:08;101504.00;;;7.91;70.35
78990;BME280;68390;52.130;21.218;2023-05-07T08:57:33;101509.47;;;7.91;69.77
78990;BME280;68390;52.130;21.218;2023-05-07T08:59:59;101511.59;;;7.98;68.70
78990;BME280;68390;52.130;21.218;2023-05-07T09:02:24;101505.25;;;8.09;70.38
78990;BME280;68390;52.130;21.218;2023-05-07T09:04:50;101500.47;;;8.22;67.30
78990;BME280;68390;52.130;21.218;2023-05-07T09:07:16;101507.75;;;8.44;68.38
78990;BME280;68390;52.130;21.218;2023-05-07T09:09:43;101509.44;;;8.67;69.08
78990;BME280;68390;52.130;21.218;2023-05-07T09:12:09;101503.66;;;8.81;66.31
78990;BME280;68390;52.130;21.218;2023-05-07T09:14:35;101505.84;;;8.88;64.01
78990;BME280;68390;52.130;21.218;2023-05-07T09:17:00;101508.97;;;9.04;64.98
78990;BME280;68390;52.130;21.218;2023-05-07T09:19:26;101508.03;;;9.14;63.89
78990;BME280;68390;52.130;21.218;2023-05-07T09:22:03;101516.66;;;9.31;65.75
78990;BME280;68390;52.130;21.218;2023-05-07T09:24:29;101521.53;;;9.27;61.93
78990;BME280;68390;52.130;21.218;2023-05-07T09:26:59;101515.53;;;9.33;63.01
78990;BME280;68390;52.130;21.218;2023-05-07T09:29:26;101526.91;;;9.29;61.88
78990;BME280;68390;52.130;21.218;2023-05-07T09:31:54;101520.41;;;9.30;64.13
78990;BME280;68390;52.130;21.218;2023-05-07T09:34:19;101533.00;;;9.32;62.19
78990;BME280;68390;52.130;21.218;2023-05-07T09:36:45;101530.50;;;9.29;63.03
78990;BME280;68390;52.130;21.218;2023-05-07T09:39:10;101542.28;;;9.20;61.75
78990;BME280;68390;52.130;21.218;2023-05-07T09:41:46;101532.56;;;9.16;62.94
78990;BME280;68390;52.130;21.218;2023-05-07T09:44:13;101541.78;;;9.15;62.10
78990;BME280;68390;52.130;21.218;2023-05-07T09:46:42;101538.84;;;9.07;59.77
78990;BME280;68390;52.130;21.218;2023-05-07T09:49:12;101538.00;;;9.06;61.12
78990;BME280;68390;52.130;21.218;2023-05-07T09:51:47;101538.59;;;8.89;60.83
78990;BME280;68390;52.130;21.218;2023-05-07T09:54:13;101541.94;;;8.93;62.94
78990;BME280;68390;52.130;21.218;2023-05-07T09:56:39;101543.41;;;8.97;62.31
78990;BME280;68390;52.130;21.218;2023-05-07T09:59:08;101552.63;;;8.96;60.66
78990;BME280;68390;52.130;21.218;2023-05-07T10:01:36;101549.28;;;8.92;63.25
78990;BME280;68390;52.130;21.218;2023-05-07T10:04:02;101553.91;;;8.92;63.38
78990;BME280;68390;52.130;21.218;2023-05-07T10:06:30;101551.34;;;8.79;60.18
78990;BME280;68390;52.130;21.218;2023-05-07T10:08:55;101555.19;;;8.76;62.95
78990;BME280;68390;52.130;21.218;2023-05-07T10:11:22;101564.91;;;8.80;63.18
78990;BME280;68390;52.130;21.218;2023-05-07T10:13:48;101559.75;;;8.87;63.17
78990;BME280;68390;52.130;21.218;2023-05-07T10:16:14;101563.00;;;8.92;63.97
78990;BME280;68390;52.130;21.218;2023-05-07T10:18:43;101561.13;;;8.93;60.41
78990;BME280;68390;52.130;21.218;2023-05-07T10:21:16;101570.91;;;8.95;60.94
78990;BME280;68390;52.130;21.218;2023-05-07T10:23:49;101571.66;;;8.97;59.84
78990;BME280;68390;52.130;21.218;2023-05-07T10:26:15;101572.28;;;9.01;62.11
78990;BME280;68390;52.130;21.218;2023-05-07T10:28:46;101570.00;;;9.06;62.91
78990;BME280;68390;52.130;21.218;2023-05-07T10:33:48;101569.47;;;9.12;62.05
78990;BME280;68390;52.130;21.218;2023-05-07T10:36:17;101581.16;;;9.14;60.72
78990;BME280;68390;52.130;21.218;2023-05-07T10:38:43;101579.44;;;9.13;63.65
78990;BME280;68390;52.130;21.218;2023-05-07T10:41:09;101573.47;;;9.08;61.07
78990;BME280;68390;52.130;21.218;2023-05-07T10:43:43;101579.22;;;9.05;61.69
78990;BME280;68390;52.130;21.218;2023-05-07T10:46:19;101579.50;;;9.02;60.95
78990;BME280;68390;52.130;21.218;2023-05-07T10:51:29;101574.53;;;8.96;61.31
78990;BME280;68390;52.130;21.218;2023-05-07T10:54:18;101590.72;;;8.99;61.61
78990;BME280;68390;52.130;21.218;2023-05-07T10:56:44;101575.03;;;9.01;62.73
78990;BME280;68390;52.130;21.218;2023-05-07T11:04:17;101592.00;;;9.15;63.89
78990;BME280;68390;52.130;21.218;2023-05-07T11:15:06;101592.50;;;9.41;61.62
78990;BME280;68390;52.130;21.218;2023-05-07T11:17:33;101590.75;;;9.40;58.68
78990;BME280;68390;52.130;21.218;2023-05-07T11:20:01;101595.69;;;9.46;59.10
78990;BME280;68390;52.130;21.218;2023-05-07T11:25:03;101600.78;;;9.51;58.82
78990;BME280;68390;52.130;21.218;2023-05-07T11:27:29;101598.41;;;9.67;60.66
78990;BME280;68390;52.130;21.218;2023-05-07T11:29:55;101595.88;;;9.75;60.35
78990;BME280;68390;52.130;21.218;2023-05-07T11:32:25;101597.66;;;9.86;58.56
78990;BME280;68390;52.130;21.218;2023-05-07T11:34:52;101600.13;;;9.89;56.60
78990;BME280;68390;52.130;21.218;2023-05-07T11:37:18;101607.22;;;9.91;58.97
78990;BME280;68390;52.130;21.218;2023-05-07T11:39:44;101595.59;;;9.78;55.79
78990;BME280;68390;52.130;21.218;2023-05-07T11:42:32;101608.31;;;9.79;57.08
78990;BME280;68390;52.130;21.218;2023-05-07T11:44:58;101602.25;;;9.76;57.34
78990;BME280;68390;52.130;21.218;2023-05-07T11:47:24;101613.41;;;9.84;59.64
78990;BME280;68390;52.130;21.218;2023-05-07T11:49:53;101605.22;;;9.93;57.15
78990;BME280;68390;52.130;21.218;2023-05-07T11:52:21;101615.63;;;10.00;59.32
78990;BME280;68390;52.130;21.218;2023-05-07T11:54:50;101604.53;;;10.01;54.84
78990;BME280;68390;52.130;21.218;2023-05-07T11:57:16;101614.66;;;10.10;58.61
78990;BME280;68390;52.130;21.218;2023-05-07T11:59:42;101612.53;;;10.14;56.05
78990;BME280;68390;52.130;21.218;2023-05-07T12:02:15;101620.63;;;10.15;55.68
78990;BME280;68390;52.130;21.218;2023-05-07T12:04:41;101614.53;;;10.12;55.00
78990;BME280;68390;52.130;21.218;2023-05-07T12:07:11;101619.41;;;10.08;55.59
78990;BME280;68390;52.130;21.218;2023-05-07T12:09:38;101620.72;;;10.04;56.23
78990;BME280;68390;52.130;21.218;2023-05-07T12:12:04;101622.91;;;10.10;57.38
78990;BME280;68390;52.130;21.218;2023-05-07T12:14:29;101623.56;;;10.23;57.41
78990;BME280;68390;52.130;21.218;2023-05-07T12:16:55;101618.00;;;10.35;58.08
78990;BME280;68390;52.130;21.218;2023-05-07T12:19:21;101617.84;;;10.36;55.92
78990;BME280;68390;52.130;21.218;2023-05-07T12:21:47;101621.06;;;10.51;57.07
78990;BME280;68390;52.130;21.218;2023-05-07T12:24:14;101619.41;;;10.69;56.98
78990;BME280;68390;52.130;21.218;2023-05-07T12:26:40;101624.91;;;10.79;56.35
78990;BME280;68390;52.130;21.218;2023-05-07T12:29:06;101627.81;;;10.96;54.93
78990;BME280;68390;52.130;21.218;2023-05-07T12:31:31;101610.59;;;11.04;54.73
78990;BME280;68390;52.130;21.218;2023-05-07T12:33:57;101614.22;;;11.14;52.42
78990;BME280;68390;52.130;21.218;2023-05-07T12:36:22;101618.72;;;11.15;54.12
78990;BME280;68390;52.130;21.218;2023-05-07T12:38:49;101628.69;;;11.07;52.29
78990;BME280;68390;52.130;21.218;2023-05-07T12:41:15;101622.91;;;11.00;53.01
78990;BME280;68390;52.130;21.218;2023-05-07T12:43:44;101625.06;;;10.96;54.32
78990;BME280;68390;52.130;21.218;2023-05-07T12:46:09;101625.50;;;11.01;52.41
78990;BME280;68390;52.130;21.218;2023-05-07T12:48:37;101630.44;;;11.08;52.88
78990;BME280;68390;52.130;21.218;2023-05-07T12:51:02;101631.16;;;11.10;54.53
78990;BME280;68390;52.130;21.218;2023-05-07T12:53:29;101634.47;;;11.13;54.10
78990;BME280;68390;52.130;21.218;2023-05-07T12:55:57;101626.53;;;11.20;53.46
78990;BME280;68390;52.130;21.218;2023-05-07T12:58:26;101627.41;;;11.30;51.72
78990;BME280;68390;52.130;21.218;2023-05-07T13:00:54;101629.16;;;11.31;51.97
78990;BME280;68390;52.130;21.218;2023-05-07T13:03:31;101632.44;;;11.25;52.59
78990;BME280;68390;52.130;21.218;2023-05-07T13:06:04;101629.84;;;11.14;52.98
78990;BME280;68390;52.130;21.218;2023-05-07T13:08:37;101627.81;;;11.16;53.80